sensor_id;sensor_type;location;lat;lon;timestamp;temperature;humidity
20349;DHT22;10332;50.208;18.988;2023-02-19T00:00:00;7.70;99.90
20349;DHT22;10332;50.208;18.988;2023-02-19T00:02:28;7.70;99.90
20349;DHT22;10332;50.208;18.988;2023-02-19T00:04:55;7.70;99.90
20349;DHT22;10332;50.208;18.988;2023-02-19T00:07:23;7.70;99.90
20349;DHT22;10332;50.208;18.988;2023-02-19T00:09:50;7.70;99.90
20349;DHT22;10332;50.208;18.988;2023-02-19T00:12:18;7.70;99.90
20349;DHT22;10332;50.208;18.988;2023-02-19T00:14:45;7.70;99.90
20349;DHT22;10332;50.208;18.988;2023-02-19T00:17:13;7.60;99.90
20349;DHT22;10332;50.208;18.988;2023-02-19T00:19:40;7.70;99.90
20349;DHT22;10332;50.208;18.988;2023-02-19T00:22:07;7.60;99.90
20349;DHT22;10332;50.208;18.988;2023-02-19T00:24:35;7.60;99.90
20349;DHT22;10332;50.208;18.988;2023-02-19T00:27:02;7.60;99.90
20349;DHT22;10332;50.208;18.988;2023-02-19T00:29:30;7.60;99.90
20349;DHT22;10332;50.208;18.988;2023-02-19T00:31:57;7.60;99.90
20349;DHT22;10332;50.208;18.988;2023-02-19T00:34:25;7.60;99.90
20349;DHT22;10332;50.208;18.988;2023-02-19T00:36:52;7.60;99.90
20349;DHT22;10332;50.208;18.988;2023-02-19T00:39:20;7.50;99.90
20349;DHT22;10332;50.208;18.988;2023-02-19T00:41:47;7.50;99.90
20349;DHT22;10332;50.208;18.988;2023-02-19T00:44:15;7.50;99.90
20349;DHT22;10332;50.208;18.988;2023-02-19T00:46:44;7.60;99.90
20349;DHT22;10332;50.208;18.988;2023-02-19T00:49:16;7.50;99.90
20349;DHT22;10332;50.208;18.988;2023-02-19T00:51:47;7.50;99.90
20349;DHT22;10332;50.208;18.988;2023-02-19T00:54:16;7.50;99.90
20349;DHT22;10332;50.208;18.988;2023-02-19T00:56:43;7.50;99.90
20349;DHT22;10332;50.208;18.988;2023-02-19T00:59:12;7.50;99.90
20349;DHT22;10332;50.208;18.988;2023-02-19T01:01:39;7.50;99.90
20349;DHT22;10332;50.208;18.988;2023-02-19T01:04:08;7.50;99.90
20349;DHT22;10332;50.208;18.988;2023-02-19T01:06:35;7.50;99.90
20349;DHT22;10332;50.208;18.988;2023-02-19T01:09:04;7.50;99.90
20349;DHT22;10332;50.208;18.988;2023-02-19T01:11:31;7.40;99.90
20349;DHT22;10332;50.208;18.988;2023-02-19T01:14:00;7.40;99.90
20349;DHT22;10332;50.208;18.988;2023-02-19T01:16:29;7.40;99.90
20349;DHT22;10332;50.208;18.988;2023-02-19T01:18:57;7.30;99.90
20349;DHT22;10332;50.208;18.988;2023-02-19T01:21:26;7.40;99.90
20349;DHT22;10332;50.208;18.988;2023-02-19T01:23:55;7.40;99.90
20349;DHT22;10332;50.208;18.988;2023-02-19T01:26:27;7.30;99.90
20349;DHT22;10332;50.208;18.988;2023-02-19T01:28:57;7.40;99.90
20349;DHT22;10332;50.208;18.988;2023-02-19T01:31:26;7.40;99.90
20349;DHT22;10332;50.208;18.988;2023-02-19T01:33:59;7.30;99.90
20349;DHT22;10332;50.208;18.988;2023-02-19T01:36:28;7.30;99.90
20349;DHT22;10332;50.208;18.988;2023-02-19T01:38:59;7.30;99.90
20349;DHT22;10332;50.208;18.988;2023-02-19T01:41:30;7.30;99.90
20349;DHT22;10332;50.208;18.988;2023-02-19T01:46:44;7.30;99.90
20349;DHT22;10332;50.208;18.988;2023-02-19T01:49:16;7.30;99.90
20349;DHT22;10332;50.208;18.988;2023-02-19T01:51:52;7.30;99.90
20349;DHT22;10332;50.208;18.988;2023-02-19T01:54:30;7.30;99.90
20349;DHT22;10332;50.208;18.988;2023-02-19T01:57:04;7.20;99.90
20349;DHT22;10332;50.208;18.988;2023-02-19T01:59:37;7.20;99.90
20349;DHT22;10332;50.208;18.988;2023-02-19T02:02:05;7.20;99.90
20349;DHT22;10332;50.208;18.988;2023-02-19T02:04:33;7.20;99.90
20349;DHT22;10332;50.208;18.988;2023-02-19T02:07:03;7.20;99.90
20349;DHT22;10332;50.208;18.988;2023-02-19T02:09:53;7.20;99.90
20349;DHT22;10332;50.208;18.988;2023-02-19T02:12:39;7.20;99.90
20349;DHT22;10332;50.208;18.988;2023-02-19T02:15:07;7.20;99.90
20349;DHT22;10332;50.208;18.988;2023-02-19T02:17:45;7.20;99.90
20349;DHT22;10332;50.208;18.988;2023-02-19T02:20:39;7.20;99.90
20349;DHT22;10332;50.208;18.988;2023-02-19T02:26:55;7.30;99.90
20349;DHT22;10332;50.208;18.988;2023-02-19T02:35:58;7.30;99.90
20349;DHT22;10332;50.208;18.988;2023-02-19T02:38:36;7.30;99.90
20349;DHT22;10332;50.208;18.988;2023-02-19T02:41:07;7.30;99.90
20349;DHT22;10332;50.208;18.988;2023-02-19T02:43:36;7.30;99.90
20349;DHT22;10332;50.208;18.988;2023-02-19T02:46:03;7.30;99.90
20349;DHT22;10332;50.208;18.988;2023-02-19T02:48:42;7.30;99.90
20349;DHT22;10332;50.208;18.988;2023-02-19T02:51:20;7.30;99.90
20349;DHT22;10332;50.208;18.988;2023-02-19T02:56:43;7.20;99.90
20349;DHT22;10332;50.208;18.988;2023-02-19T02:59:14;7.20;99.90
20349;DHT22;10332;50.208;18.988;2023-02-19T03:02:21;7.20;99.90
20349;DHT22;10332;50.208;18.988;2023-02-19T03:05:16;7.20;99.90
20349;DHT22;10332;50.208;18.988;2023-02-19T03:08:15;7.20;99.90
20349;DHT22;10332;50.208;18.988;2023-02-19T03:11:03;7.20;99.90
20349;DHT22;10332;50.208;18.988;2023-02-19T03:13:57;7.20;99.90
20349;DHT22;10332;50.208;18.988;2023-02-19T03:16:45;7.20;99.90
20349;DHT22;10332;50.208;18.988;2023-02-19T03:19:41;7.10;99.90
20349;DHT22;10332;50.208;18.988;2023-02-19T03:22:32;7.20;99.90
20349;DHT22;10332;50.208;18.988;2023-02-19T03:28:10;7.10;99.90
20349;DHT22;10332;50.208;18.988;2023-02-19T03:30:49;7.10;99.90
20349;DHT22;10332;50.208;18.988;2023-02-19T03:33:24;7.10;99.90
20349;DHT22;10332;50.208;18.988;2023-02-19T03:35:57;7.10;99.90
20349;DHT22;10332;50.208;18.988;2023-02-19T03:38:50;7.00;99.90
20349;DHT22;10332;50.208;18.988;2023-02-19T03:44:52;7.00;99.90
20349;DHT22;10332;50.208;18.988;2023-02-19T03:48:21;7.00;99.90
20349;DHT22;10332;50.208;18.988;2023-02-19T03:57:10;7.00;99.90
20349;DHT22;10332;50.208;18.988;2023-02-19T03:59:57;7.10;99.90
20349;DHT22;10332;50.208;18.988;2023-02-19T04:02:38;7.10;99.90
20349;DHT22;10332;50.208;18.988;2023-02-19T04:05:25;7.10;99.90
20349;DHT22;10332;50.208;18.988;2023-02-19T04:08:03;7.10;99.90
20349;DHT22;10332;50.208;18.988;2023-02-19T04:10:37;7.10;99.90
20349;DHT22;10332;50.208;18.988;2023-02-19T04:13:13;7.10;99.90
20349;DHT22;10332;50.208;18.988;2023-02-19T04:15:46;7.10;99.90
20349;DHT22;10332;50.208;18.988;2023-02-19T04:18:20;7.10;99.90
20349;DHT22;10332;50.208;18.988;2023-02-19T04:20:51;7.10;99.90
20349;DHT22;10332;50.208;18.988;2023-02-19T04:23:22;7.20;99.90
20349;DHT22;10332;50.208;18.988;2023-02-19T04:25:55;7.20;99.90
20349;DHT22;10332;50.208;18.988;2023-02-19T04:28:27;7.10;99.90
20349;DHT22;10332;50.208;18.988;2023-02-19T04:30:55;7.20;99.90
20349;DHT22;10332;50.208;18.988;2023-02-19T04:33:22;7.20;99.90
20349;DHT22;10332;50.208;18.988;2023-02-19T04:35:50;7.20;99.90
20349;DHT22;10332;50.208;18.988;2023-02-19T04:38:18;7.20;99.90
20349;DHT22;10332;50.208;18.988;2023-02-19T04:40:46;7.20;99.90
20349;DHT22;10332;50.208;18.988;2023-02-19T04:43:13;7.20;99.90
20349;DHT22;10332;50.208;18.988;2023-02-19T04:45:41;7.30;99.90
20349;DHT22;10332;50.208;18.988;2023-02-19T04:48:09;7.30;99.90
20349;DHT22;10332;50.208;18.988;2023-02-19T04:50:39;7.30;99.90
20349;DHT22;10332;50.208;18.988;2023-02-19T04:53:07;7.30;99.90
20349;DHT22;10332;50.208;18.988;2023-02-19T04:55:38;7.30;99.90
20349;DHT22;10332;50.208;18.988;2023-02-19T04:58:06;7.30;99.90
20349;DHT22;10332;50.208;18.988;2023-02-19T05:00:33;7.30;99.90
20349;DHT22;10332;50.208;18.988;2023-02-19T05:03:01;7.30;99.90
20349;DHT22;10332;50.208;18.988;2023-02-19T05:05:28;7.30;99.90
20349;DHT22;10332;50.208;18.988;2023-02-19T05:07:56;7.30;99.90
20349;DHT22;10332;50.208;18.988;2023-02-19T05:10:24;7.30;99.90
20349;DHT22;10332;50.208;18.988;2023-02-19T05:12:53;7.30;99.90
20349;DHT22;10332;50.208;18.988;2023-02-19T05:15:23;7.30;99.90
20349;DHT22;10332;50.208;18.988;2023-02-19T05:17:51;7.30;99.90
20349;DHT22;10332;50.208;18.988;2023-02-19T05:20:18;7.30;99.90
20349;DHT22;10332;50.208;18.988;2023-02-19T05:22:46;7.40;99.90
20349;DHT22;10332;50.208;18.988;2023-02-19T05:25:13;7.40;99.90
20349;DHT22;10332;50.208;18.988;2023-02-19T05:27:41;7.40;99.90
20349;DHT22;10332;50.208;18.988;2023-02-19T05:30:09;7.40;99.90
20349;DHT22;10332;50.208;18.988;2023-02-19T05:32:37;7.40;99.90
20349;DHT22;10332;50.208;18.988;2023-02-19T05:35:05;7.50;99.90
20349;DHT22;10332;50.208;18.988;2023-02-19T05:37:33;7.40;99.90
20349;DHT22;10332;50.208;18.988;2023-02-19T05:40:00;7.50;99.90
20349;DHT22;10332;50.208;18.988;2023-02-19T05:42:28;7.50;99.90
20349;DHT22;10332;50.208;18.988;2023-02-19T05:44:55;7.50;99.90
20349;DHT22;10332;50.208;18.988;2023-02-19T05:47:23;7.50;99.90
20349;DHT22;10332;50.208;18.988;2023-02-19T05:49:50;7.60;99.90
20349;DHT22;10332;50.208;18.988;2023-02-19T05:52:17;7.60;99.90
20349;DHT22;10332;50.208;18.988;2023-02-19T05:54:45;7.60;99.90
20349;DHT22;10332;50.208;18.988;2023-02-19T05:57:12;7.70;99.90
20349;DHT22;10332;50.208;18.988;2023-02-19T05:59:40;7.70;99.90
20349;DHT22;10332;50.208;18.988;2023-02-19T06:02:08;7.70;99.90
20349;DHT22;10332;50.208;18.988;2023-02-19T06:04:36;7.70;99.90
20349;DHT22;10332;50.208;18.988;2023-02-19T06:07:03;7.70;99.90
20349;DHT22;10332;50.208;18.988;2023-02-19T06:09:31;7.80;99.90
20349;DHT22;10332;50.208;18.988;2023-02-19T06:11:58;7.70;99.90
20349;DHT22;10332;50.208;18.988;2023-02-19T06:14:26;7.60;99.90
20349;DHT22;10332;50.208;18.988;2023-02-19T06:16:53;7.60;99.90
20349;DHT22;10332;50.208;18.988;2023-02-19T06:19:21;7.60;99.90
20349;DHT22;10332;50.208;18.988;2023-02-19T06:21:49;7.50;99.90
20349;DHT22;10332;50.208;18.988;2023-02-19T06:24:16;7.50;99.90
20349;DHT22;10332;50.208;18.988;2023-02-19T06:26:44;7.50;99.90
20349;DHT22;10332;50.208;18.988;2023-02-19T06:29:12;7.50;99.90
20349;DHT22;10332;50.208;18.988;2023-02-19T06:31:40;7.50;99.90
20349;DHT22;10332;50.208;18.988;2023-02-19T06:34:07;7.50;99.90
20349;DHT22;10332;50.208;18.988;2023-02-19T06:36:35;7.50;99.90
20349;DHT22;10332;50.208;18.988;2023-02-19T06:39:03;7.60;99.90
20349;DHT22;10332;50.208;18.988;2023-02-19T06:41:32;7.60;99.90
20349;DHT22;10332;50.208;18.988;2023-02-19T06:43:59;7.60;99.90
20349;DHT22;10332;50.208;18.988;2023-02-19T06:46:27;7.60;99.90
20349;DHT22;10332;50.208;18.988;2023-02-19T06:48:54;7.60;99.90
20349;DHT22;10332;50.208;18.988;2023-02-19T06:51:22;7.70;99.90
20349;DHT22;10332;50.208;18.988;2023-02-19T06:53:52;7.70;99.90
20349;DHT22;10332;50.208;18.988;2023-02-19T06:56:25;7.70;99.90
20349;DHT22;10332;50.208;18.988;2023-02-19T06:59:01;7.80;99.90
20349;DHT22;10332;50.208;18.988;2023-02-19T07:01:32;7.80;99.90
20349;DHT22;10332;50.208;18.988;2023-02-19T07:04:01;7.80;99.90
20349;DHT22;10332;50.208;18.988;2023-02-19T07:06:30;7.80;99.90
20349;DHT22;10332;50.208;18.988;2023-02-19T07:08:59;7.70;99.90
20349;DHT22;10332;50.208;18.988;2023-02-19T07:11:29;7.70;99.90
20349;DHT22;10332;50.208;18.988;2023-02-19T07:14:00;7.70;99.90
20349;DHT22;10332;50.208;18.988;2023-02-19T07:16:30;7.70;99.90
20349;DHT22;10332;50.208;18.988;2023-02-19T07:18:59;7.70;99.90
20349;DHT22;10332;50.208;18.988;2023-02-19T07:21:27;7.70;99.90
20349;DHT22;10332;50.208;18.988;2023-02-19T07:23:56;7.70;99.90
20349;DHT22;10332;50.208;18.988;2023-02-19T07:26:24;7.80;99.90
20349;DHT22;10332;50.208;18.988;2023-02-19T07:28:51;7.80;99.90
20349;DHT22;10332;50.208;18.988;2023-02-19T07:31:21;7.80;99.90
20349;DHT22;10332;50.208;18.988;2023-02-19T07:33:50;7.90;99.90
20349;DHT22;10332;50.208;18.988;2023-02-19T07:36:19;7.90;99.90
20349;DHT22;10332;50.208;18.988;2023-02-19T07:38:57;7.90;99.90
20349;DHT22;10332;50.208;18.988;2023-02-19T07:41:26;8.00;99.90
20349;DHT22;10332;50.208;18.988;2023-02-19T07:43:54;8.00;99.90
20349;DHT22;10332;50.208;18.988;2023-02-19T07:46:21;8.00;99.90
20349;DHT22;10332;50.208;18.988;2023-02-19T07:48:49;8.00;99.90
20349;DHT22;10332;50.208;18.988;2023-02-19T07:51:18;8.10;99.90
20349;DHT22;10332;50.208;18.988;2023-02-19T07:53:48;8.20;99.90
20349;DHT22;10332;50.208;18.988;2023-02-19T07:56:19;8.20;99.90
20349;DHT22;10332;50.208;18.988;2023-02-19T07:58:46;8.30;99.90
20349;DHT22;10332;50.208;18.988;2023-02-19T08:01:23;8.40;99.90
20349;DHT22;10332;50.208;18.988;2023-02-19T08:04:12;8.40;99.90
20349;DHT22;10332;50.208;18.988;2023-02-19T08:06:41;8.50;99.90
20349;DHT22;10332;50.208;18.988;2023-02-19T08:09:09;8.50;99.90
20349;DHT22;10332;50.208;18.988;2023-02-19T08:11:37;8.60;99.90
20349;DHT22;10332;50.208;18.988;2023-02-19T08:14:25;8.70;99.90
20349;DHT22;10332;50.208;18.988;2023-02-19T08:16:54;8.80;99.90
20349;DHT22;10332;50.208;18.988;2023-02-19T08:19:22;8.80;99.90
20349;DHT22;10332;50.208;18.988;2023-02-19T08:21:49;8.90;99.90
20349;DHT22;10332;50.208;18.988;2023-02-19T08:24:17;9.00;99.90
20349;DHT22;10332;50.208;18.988;2023-02-19T08:26:45;9.10;99.90
20349;DHT22;10332;50.208;18.988;2023-02-19T08:29:12;9.10;99.90
20349;DHT22;10332;50.208;18.988;2023-02-19T08:31:40;9.00;99.90
20349;DHT22;10332;50.208;18.988;2023-02-19T08:34:07;9.00;99.90
20349;DHT22;10332;50.208;18.988;2023-02-19T08:36:35;9.00;99.90
20349;DHT22;10332;50.208;18.988;2023-02-19T08:39:03;9.00;99.90
20349;DHT22;10332;50.208;18.988;2023-02-19T08:41:31;9.00;99.90
20349;DHT22;10332;50.208;18.988;2023-02-19T08:43:58;8.90;99.90
20349;DHT22;10332;50.208;18.988;2023-02-19T08:46:25;8.90;99.90
20349;DHT22;10332;50.208;18.988;2023-02-19T08:48:53;8.80;99.90
20349;DHT22;10332;50.208;18.988;2023-02-19T08:51:20;8.70;99.90
20349;DHT22;10332;50.208;18.988;2023-02-19T08:53:48;8.60;99.90
20349;DHT22;10332;50.208;18.988;2023-02-19T08:56:16;8.60;99.90
20349;DHT22;10332;50.208;18.988;2023-02-19T08:58:44;8.60;99.90
20349;DHT22;10332;50.208;18.988;2023-02-19T09:01:15;8.50;99.90
20349;DHT22;10332;50.208;18.988;2023-02-19T09:03:44;8.40;99.90
20349;DHT22;10332;50.208;18.988;2023-02-19T09:06:14;8.30;99.90
20349;DHT22;10332;50.208;18.988;2023-02-19T09:08:44;8.30;99.90
20349;DHT22;10332;50.208;18.988;2023-02-19T09:11:12;8.20;99.90
20349;DHT22;10332;50.208;18.988;2023-02-19T09:13:41;8.20;99.90
20349;DHT22;10332;50.208;18.988;2023-02-19T09:16:10;8.20;99.90
20349;DHT22;10332;50.208;18.988;2023-02-19T09:18:37;8.20;99.90
20349;DHT22;10332;50.208;18.988;2023-02-19T09:21:05;8.20;99.90
20349;DHT22;10332;50.208;18.988;2023-02-19T09:23:34;8.10;99.90
20349;DHT22;10332;50.208;18.988;2023-02-19T09:26:05;8.10;99.90
20349;DHT22;10332;50.208;18.988;2023-02-19T09:28:36;8.10;99.90
20349;DHT22;10332;50.208;18.988;2023-02-19T09:31:13;8.00;99.90
20349;DHT22;10332;50.208;18.988;2023-02-19T09:33:44;8.10;99.90
20349;DHT22;10332;50.208;18.988;2023-02-19T09:36:14;8.10;99.90
20349;DHT22;10332;50.208;18.988;2023-02-19T09:38:43;8.10;99.90
20349;DHT22;10332;50.208;18.988;2023-02-19T09:41:31;8.10;99.90
20349;DHT22;10332;50.208;18.988;2023-02-19T09:44:03;8.10;99.90
20349;DHT22;10332;50.208;18.988;2023-02-19T09:46:43;8.20;99.90
20349;DHT22;10332;50.208;18.988;2023-02-19T09:54:49;8.40;99.90
20349;DHT22;10332;50.208;18.988;2023-02-19T09:57:25;8.50;99.90
20349;DHT22;10332;50.208;18.988;2023-02-19T10:00:06;8.50;99.90
20349;DHT22;10332;50.208;18.988;2023-02-19T10:02:51;8.40;99.90
20349;DHT22;10332;50.208;18.988;2023-02-19T10:05:22;8.30;99.90
20349;DHT22;10332;50.208;18.988;2023-02-19T10:07:52;8.30;99.90
20349;DHT22;10332;50.208;18.988;2023-02-19T10:10:28;8.30;99.90
20349;DHT22;10332;50.208;18.988;2023-02-19T10:13:20;8.30;99.90
20349;DHT22;10332;50.208;18.988;2023-02-19T10:15:57;8.30;99.90
20349;DHT22;10332;50.208;18.988;2023-02-19T10:18:32;8.30;99.90
20349;DHT22;10332;50.208;18.988;2023-02-19T10:21:05;8.40;99.90
20349;DHT22;10332;50.208;18.988;2023-02-19T10:23:33;8.40;99.90
20349;DHT22;10332;50.208;18.988;2023-02-19T10:26:00;8.50;99.90
20349;DHT22;10332;50.208;18.988;2023-02-19T10:28:32;8.60;99.90
20349;DHT22;10332;50.208;18.988;2023-02-19T10:31:05;8.70;99.90
20349;DHT22;10332;50.208;18.988;2023-02-19T10:33:50;8.70;99.90
20349;DHT22;10332;50.208;18.988;2023-02-19T10:36:35;8.60;99.90
20349;DHT22;10332;50.208;18.988;2023-02-19T10:41:49;8.30;99.90
20349;DHT22;10332;50.208;18.988;2023-02-19T10:44:24;8.20;99.90
20349;DHT22;10332;50.208;18.988;2023-02-19T10:46:57;8.40;99.90
20349;DHT22;10332;50.208;18.988;2023-02-19T10:52:31;8.90;99.90
20349;DHT22;10332;50.208;18.988;2023-02-19T10:55:27;9.30;99.10
20349;DHT22;10332;50.208;18.988;2023-02-19T10:58:24;10.20;95.90
20349;DHT22;10332;50.208;18.988;2023-02-19T11:01:21;10.80;90.50
20349;DHT22;10332;50.208;18.988;2023-02-19T11:04:15;10.70;85.70
20349;DHT22;10332;50.208;18.988;2023-02-19T11:06:44;10.50;82.40
20349;DHT22;10332;50.208;18.988;2023-02-19T11:09:38;10.20;84.20
20349;DHT22;10332;50.208;18.988;2023-02-19T11:12:09;10.20;88.70
20349;DHT22;10332;50.208;18.988;2023-02-19T11:14:43;10.10;90.00
20349;DHT22;10332;50.208;18.988;2023-02-19T11:17:25;10.00;90.30
20349;DHT22;10332;50.208;18.988;2023-02-19T11:20:15;10.00;90.50
20349;DHT22;10332;50.208;18.988;2023-02-19T11:22:44;9.80;90.10
20349;DHT22;10332;50.208;18.988;2023-02-19T11:27:58;9.40;90.40
20349;DHT22;10332;50.208;18.988;2023-02-19T11:35:54;8.90;91.80
20349;DHT22;10332;50.208;18.988;2023-02-19T11:38:44;8.80;93.00
20349;DHT22;10332;50.208;18.988;2023-02-19T11:56:23;8.00;96.30
20349;DHT22;10332;50.208;18.988;2023-02-19T12:02:01;8.10;96.60
20349;DHT22;10332;50.208;18.988;2023-02-19T12:22:04;8.20;93.90
20349;DHT22;10332;50.208;18.988;2023-02-19T12:27:53;7.90;94.40
20349;DHT22;10332;50.208;18.988;2023-02-19T12:42:50;7.60;96.40
20349;DHT22;10332;50.208;18.988;2023-02-19T12:48:13;7.60;97.90
20349;DHT22;10332;50.208;18.988;2023-02-19T12:51:09;7.60;98.00
20349;DHT22;10332;50.208;18.988;2023-02-19T12:53:51;7.70;97.20
20349;DHT22;10332;50.208;18.988;2023-02-19T12:56:33;7.70;95.30
20349;DHT22;10332;50.208;18.988;2023-02-19T12:59:11;7.60;94.50
20349;DHT22;10332;50.208;18.988;2023-02-19T13:01:58;7.60;94.60
20349;DHT22;10332;50.208;18.988;2023-02-19T13:04:46;7.60;95.10
20349;DHT22;10332;50.208;18.988;2023-02-19T13:13:03;7.30;90.70
20349;DHT22;10332;50.208;18.988;2023-02-19T13:15:46;7.50;88.60
20349;DHT22;10332;50.208;18.988;2023-02-19T13:18:28;7.60;83.60
20349;DHT22;10332;50.208;18.988;2023-02-19T13:21:04;7.70;83.30
20349;DHT22;10332;50.208;18.988;2023-02-19T13:23:35;7.70;78.90
20349;DHT22;10332;50.208;18.988;2023-02-19T13:30:05;7.70;76.00
20349;DHT22;10332;50.208;18.988;2023-02-19T13:33:22;7.40;76.80
20349;DHT22;10332;50.208;18.988;2023-02-19T13:36:15;7.20;78.80
20349;DHT22;10332;50.208;18.988;2023-02-19T13:38:49;7.10;80.70
20349;DHT22;10332;50.208;18.988;2023-02-19T13:41:26;7.00;81.80
20349;DHT22;10332;50.208;18.988;2023-02-19T13:44:02;6.80;80.50
20349;DHT22;10332;50.208;18.988;2023-02-19T13:46:41;6.70;84.00
20349;DHT22;10332;50.208;18.988;2023-02-19T14:01:08;9.80;56.80
20349;DHT22;10332;50.208;18.988;2023-02-19T14:04:40;9.80;48.70
20349;DHT22;10332;50.208;18.988;2023-02-19T14:14:43;8.50;49.20
20349;DHT22;10332;50.208;18.988;2023-02-19T14:17:37;8.40;51.30
20349;DHT22;10332;50.208;18.988;2023-02-19T14:25:48;8.30;52.20
20349;DHT22;10332;50.208;18.988;2023-02-19T14:28:22;8.30;52.20
20349;DHT22;10332;50.208;18.988;2023-02-19T14:31:33;8.30;53.30
20349;DHT22;10332;50.208;18.988;2023-02-19T14:34:06;8.30;54.30
20349;DHT22;10332;50.208;18.988;2023-02-19T14:36:57;8.10;55.10
20349;DHT22;10332;50.208;18.988;2023-02-19T14:39:32;7.90;54.80
20349;DHT22;10332;50.208;18.988;2023-02-19T14:42:23;7.50;56.40
20349;DHT22;10332;50.208;18.988;2023-02-19T14:45:02;7.30;59.30
20349;DHT22;10332;50.208;18.988;2023-02-19T14:47:32;7.10;62.60
20349;DHT22;10332;50.208;18.988;2023-02-19T14:50:11;7.00;65.10
20349;DHT22;10332;50.208;18.988;2023-02-19T14:52:51;6.80;66.50
20349;DHT22;10332;50.208;18.988;2023-02-19T14:55:33;6.70;67.80
20349;DHT22;10332;50.208;18.988;2023-02-19T14:58:20;6.50;70.10
20349;DHT22;10332;50.208;18.988;2023-02-19T15:00:51;6.40;70.70
20349;DHT22;10332;50.208;18.988;2023-02-19T15:06:05;6.30;75.30
20349;DHT22;10332;50.208;18.988;2023-02-19T15:08:41;6.30;76.10
20349;DHT22;10332;50.208;18.988;2023-02-19T15:11:24;6.40;75.10
20349;DHT22;10332;50.208;18.988;2023-02-19T15:13:57;6.30;70.80
20349;DHT22;10332;50.208;18.988;2023-02-19T15:16:26;6.30;72.20
20349;DHT22;10332;50.208;18.988;2023-02-19T15:18:57;6.30;71.60
20349;DHT22;10332;50.208;18.988;2023-02-19T15:21:28;6.20;72.30
20349;DHT22;10332;50.208;18.988;2023-02-19T15:24:03;6.20;72.60
20349;DHT22;10332;50.208;18.988;2023-02-19T15:26:34;6.10;73.10
20349;DHT22;10332;50.208;18.988;2023-02-19T15:29:13;6.10;74.20
20349;DHT22;10332;50.208;18.988;2023-02-19T15:31:51;6.10;74.60
20349;DHT22;10332;50.208;18.988;2023-02-19T15:34:26;6.10;73.80
20349;DHT22;10332;50.208;18.988;2023-02-19T15:37:07;6.00;73.90
20349;DHT22;10332;50.208;18.988;2023-02-19T15:39:42;5.90;75.30
20349;DHT22;10332;50.208;18.988;2023-02-19T15:42:24;5.80;76.10
20349;DHT22;10332;50.208;18.988;2023-02-19T15:47:44;5.70;76.40
20349;DHT22;10332;50.208;18.988;2023-02-19T15:50:27;5.60;75.30
20349;DHT22;10332;50.208;18.988;2023-02-19T15:53:23;5.50;74.30
20349;DHT22;10332;50.208;18.988;2023-02-19T15:55:59;5.40;74.80
20349;DHT22;10332;50.208;18.988;2023-02-19T16:01:29;5.20;78.50
20349;DHT22;10332;50.208;18.988;2023-02-19T16:03:59;5.20;79.80
20349;DHT22;10332;50.208;18.988;2023-02-19T16:06:28;5.20;79.70
20349;DHT22;10332;50.208;18.988;2023-02-19T16:09:05;5.10;80.10
20349;DHT22;10332;50.208;18.988;2023-02-19T16:12:01;5.10;77.90
20349;DHT22;10332;50.208;18.988;2023-02-19T16:14:44;5.00;76.40
20349;DHT22;10332;50.208;18.988;2023-02-19T16:17:12;5.00;76.00
20349;DHT22;10332;50.208;18.988;2023-02-19T16:19:54;4.90;76.80
20349;DHT22;10332;50.208;18.988;2023-02-19T16:22:29;4.90;76.70
20349;DHT22;10332;50.208;18.988;2023-02-19T16:25:02;4.90;77.60
20349;DHT22;10332;50.208;18.988;2023-02-19T16:27:40;4.90;78.60
20349;DHT22;10332;50.208;18.988;2023-02-19T16:30:30;4.90;77.80
20349;DHT22;10332;50.208;18.988;2023-02-19T16:33:38;4.90;76.50
20349;DHT22;10332;50.208;18.988;2023-02-19T16:36:36;4.90;76.70
20349;DHT22;10332;50.208;18.988;2023-02-19T16:46:48;4.90;75.90
20349;DHT22;10332;50.208;18.988;2023-02-19T16:49:18;4.90;75.00
20349;DHT22;10332;50.208;18.988;2023-02-19T16:51:47;4.90;75.30
20349;DHT22;10332;50.208;18.988;2023-02-19T16:54:14;4.90;75.20
20349;DHT22;10332;50.208;18.988;2023-02-19T16:56:42;5.00;75.00
20349;DHT22;10332;50.208;18.988;2023-02-19T16:59:09;4.90;75.20
20349;DHT22;10332;50.208;18.988;2023-02-19T17:01:37;4.90;74.40
20349;DHT22;10332;50.208;18.988;2023-02-19T17:04:10;5.00;73.00
20349;DHT22;10332;50.208;18.988;2023-02-19T17:06:39;4.90;73.50
20349;DHT22;10332;50.208;18.988;2023-02-19T17:09:07;4.90;74.80
20349;DHT22;10332;50.208;18.988;2023-02-19T17:11:35;4.80;74.60
20349;DHT22;10332;50.208;18.988;2023-02-19T17:14:03;4.80;75.50
20349;DHT22;10332;50.208;18.988;2023-02-19T17:16:32;4.80;76.90
20349;DHT22;10332;50.208;18.988;2023-02-19T17:19:12;4.80;76.30
20349;DHT22;10332;50.208;18.988;2023-02-19T17:21:45;4.80;77.50
20349;DHT22;10332;50.208;18.988;2023-02-19T17:24:13;4.80;77.40
20349;DHT22;10332;50.208;18.988;2023-02-19T17:26:41;4.80;77.70
20349;DHT22;10332;50.208;18.988;2023-02-19T17:29:13;4.80;76.70
20349;DHT22;10332;50.208;18.988;2023-02-19T17:31:41;4.80;78.90
20349;DHT22;10332;50.208;18.988;2023-02-19T17:34:09;4.80;78.20
20349;DHT22;10332;50.208;18.988;2023-02-19T17:36:37;4.80;78.40
20349;DHT22;10332;50.208;18.988;2023-02-19T17:39:05;4.70;78.90
20349;DHT22;10332;50.208;18.988;2023-02-19T17:41:40;4.70;79.70
20349;DHT22;10332;50.208;18.988;2023-02-19T17:44:08;4.60;80.80
20349;DHT22;10332;50.208;18.988;2023-02-19T17:46:37;4.50;81.50
20349;DHT22;10332;50.208;18.988;2023-02-19T17:49:05;4.40;82.80
20349;DHT22;10332;50.208;18.988;2023-02-19T17:51:34;4.20;84.50
20349;DHT22;10332;50.208;18.988;2023-02-19T17:54:01;4.20;85.50
20349;DHT22;10332;50.208;18.988;2023-02-19T17:56:29;4.20;85.10
20349;DHT22;10332;50.208;18.988;2023-02-19T17:58:58;4.10;85.70
20349;DHT22;10332;50.208;18.988;2023-02-19T18:01:26;4.10;85.70
20349;DHT22;10332;50.208;18.988;2023-02-19T18:03:54;4.10;85.20
20349;DHT22;10332;50.208;18.988;2023-02-19T18:06:22;4.00;85.50
20349;DHT22;10332;50.208;18.988;2023-02-19T18:08:50;4.00;85.80
20349;DHT22;10332;50.208;18.988;2023-02-19T18:11:20;4.00;86.30
20349;DHT22;10332;50.208;18.988;2023-02-19T18:13:50;4.00;85.60
20349;DHT22;10332;50.208;18.988;2023-02-19T18:16:18;4.00;84.70
20349;DHT22;10332;50.208;18.988;2023-02-19T18:18:46;4.00;84.60
20349;DHT22;10332;50.208;18.988;2023-02-19T18:21:14;4.00;83.90
20349;DHT22;10332;50.208;18.988;2023-02-19T18:23:41;3.90;83.10
20349;DHT22;10332;50.208;18.988;2023-02-19T18:26:10;3.90;82.80
20349;DHT22;10332;50.208;18.988;2023-02-19T18:28:38;3.90;82.70
20349;DHT22;10332;50.208;18.988;2023-02-19T18:31:06;3.90;83.50
20349;DHT22;10332;50.208;18.988;2023-02-19T18:33:33;3.90;82.50
20349;DHT22;10332;50.208;18.988;2023-02-19T18:36:02;3.90;82.50
20349;DHT22;10332;50.208;18.988;2023-02-19T18:38:30;3.80;82.30
20349;DHT22;10332;50.208;18.988;2023-02-19T18:40:58;3.80;82.10